Time;durP1;ratioP1;P1;durP2;ratioP2;P2;SDS_P1;SDS_P2;PMS_P1;PMS_P2;Temp;Humidity;BMP_temperature;BMP_pressure;BME280_temperature;BME280_humidity;BME280_pressure;Samples;Min_cycle;Max_cycle;Signal;HPM_P1;HPM_P2
2022/12/08 00:01:38;;;;;;;7.53;1.60;;;2.00;99.90;;;;;;5022311;28;20040;-57
2022/12/08 00:04:05;;;;;;;7.50;1.95;;;2.10;99.90;;;;;;5021901;28;20030;-57
2022/12/08 00:09:34;;;;;;;9.50;1.80;;;2.10;99.90;;;;;;5026184;28;20251;-58
2022/12/08 00:12:02;;;;;;;5.78;1.85;;;2.10;99.90;;;;;;5027022;28;20455;-58
2022/12/08 00:14:37;;;;;;;7.82;1.60;;;2.20;99.90;;;;;;5026499;28;20083;-57
2022/12/08 00:17:05;;;;;;;12.23;2.15;;;2.20;99.90;;;;;;5026634;28;20171;-61
2022/12/08 00:19:31;;;;;;;7.50;2.10;;;2.30;99.90;;;;;;5040660;28;20049;-59
2022/12/08 00:21:57;;;;;;;10.70;2.40;;;2.30;99.90;;;;;;5026604;28;20037;-61
2022/12/08 00:24:24;;;;;;;8.88;1.75;;;2.30;99.90;;;;;;5026289;28;20037;-59
2022/12/08 00:26:50;;;;;;;15.48;2.15;;;2.30;99.90;;;;;;5026529;28;20515;-60
2022/12/08 00:29:17;;;;;;;7.70;2.53;;;2.30;99.90;;;;;;5026120;28;20197;-60
2022/12/08 00:31:42;;;;;;;6.28;2.05;;;2.30;99.90;;;;;;5026318;28;20042;-59
2022/12/08 00:34:08;;;;;;;12.73;2.38;;;2.30;99.90;;;;;;5007125;28;20037;-58
2022/12/08 00:36:34;;;;;;;12.10;2.28;;;2.30;99.90;;;;;;5025493;28;20059;-60
2022/12/08 00:38:59;;;;;;;12.60;2.42;;;2.30;99.90;;;;;;5024824;28;20045;-60
2022/12/08 00:44:13;;;;;;;10.27;1.95;;;2.30;99.90;;;;;;5024828;28;20548;-62
2022/12/08 00:46:39;;;;;;;9.32;2.00;;;2.30;99.90;;;;;;5023567;28;20038;-61
2022/12/08 00:49:05;;;;;;;15.55;2.13;;;2.20;99.90;;;;;;5024902;28;20025;-61
2022/12/08 00:51:31;;;;;;;11.45;2.28;;;2.10;99.90;;;;;;5025700;28;20061;-61
2022/12/08 00:53:57;;;;;;;7.18;1.80;;;2.10;99.90;;;;;;5040597;28;20040;-60
2022/12/08 00:56:22;;;;;;;8.98;2.13;;;2.10;99.90;;;;;;5025627;28;20500;-60
2022/12/08 00:58:48;;;;;;;13.65;2.30;;;2.00;99.90;;;;;;5024540;28;20038;-59
2022/12/08 01:01:14;;;;;;;13.95;2.38;;;2.00;99.90;;;;;;5025744;28;20045;-61
2022/12/08 01:03:40;;;;;;;10.40;2.33;;;2.00;99.90;;;;;;5024673;28;20511;-60
2022/12/08 01:06:07;;;;;;;11.20;2.10;;;2.00;99.90;;;;;;5003806;28;20074;-61
2022/12/08 01:08:34;;;;;;;7.97;2.03;;;2.00;99.90;;;;;;5020833;28;20519;-62
2022/12/08 01:11:18;;;;;;;9.20;2.17;;;2.00;99.90;;;;;;5021222;28;20061;-59
2022/12/08 01:13:44;;;;;;;6.40;2.03;;;2.00;99.90;;;;;;5013267;28;20489;-60
2022/12/08 01:16:17;;;;;;;10.27;2.20;;;2.00;99.90;;;;;;5025058;28;20296;-62
2022/12/08 01:18:43;;;;;;;8.27;1.90;;;2.00;99.90;;;;;;5023042;28;20397;-60
2022/12/08 01:21:08;;;;;;;9.50;1.95;;;2.00;99.90;;;;;;5025242;28;20405;-61
2022/12/08 01:23:34;;;;;;;8.77;1.80;;;2.00;99.90;;;;;;5025278;28;20038;-59
2022/12/08 01:26:04;;;;;;;7.60;1.50;;;2.00;99.90;;;;;;5024953;28;20046;-60
2022/12/08 01:28:30;;;;;;;8.05;1.63;;;2.00;99.90;;;;;;5025496;28;20475;-60
2022/12/08 01:30:57;;;;;;;5.72;1.38;;;2.00;99.90;;;;;;5025356;28;20045;-60
2022/12/08 01:33:23;;;;;;;6.15;1.42;;;2.00;99.90;;;;;;5025154;28;20112;-61
2022/12/08 01:35:48;;;;;;;8.88;1.55;;;2.00;99.90;;;;;;5023028;28;20140;-62
2022/12/08 01:38:14;;;;;;;6.95;1.50;;;2.10;99.90;;;;;;5005219;28;20489;-60
2022/12/08 01:40:39;;;;;;;6.68;1.30;;;2.10;99.90;;;;;;5023228;28;20098;-61
2022/12/08 01:43:05;;;;;;;4.35;1.23;;;2.10;99.90;;;;;;5024899;28;20106;-60
2022/12/08 01:45:31;;;;;;;3.40;1.10;;;2.10;99.90;;;;;;5024004;28;20038;-61
2022/12/08 01:48:04;;;;;;;3.65;1.13;;;2.10;99.90;;;;;;5024539;28;20041;-60
2022/12/08 01:50:31;;;;;;;4.60;1.13;;;2.10;99.90;;;;;;5023565;28;20064;-61
2022/12/08 01:53:02;;;;;;;3.63;1.05;;;2.10;99.90;;;;;;5023664;28;20049;-60
2022/12/08 01:55:34;;;;;;;2.83;0.98;;;2.10;99.90;;;;;;5023155;28;20520;-61
2022/12/08 01:58:06;;;;;;;3.08;1.00;;;2.10;99.90;;;;;;5025121;28;20610;-61
2022/12/08 02:00:31;;;;;;;4.80;1.00;;;2.00;99.90;;;;;;5023725;28;20127;-59
2022/12/08 02:02:58;;;;;;;3.05;1.00;;;2.00;99.90;;;;;;5023226;28;20053;-61
2022/12/08 02:05:29;;;;;;;6.40;1.00;;;2.00;99.90;;;;;;5021664;28;20402;-60
2022/12/08 02:07:57;;;;;;;4.40;1.10;;;2.00;99.90;;;;;;5024481;28;20124;-62
2022/12/08 02:10:26;;;;;;;5.03;1.23;;;1.90;99.90;;;;;;5024107;28;20049;-58
2022/12/08 02:12:55;;;;;;;3.22;1.15;;;1.90;99.90;;;;;;5024792;28;20077;-59
2022/12/08 02:15:31;;;;;;;4.90;1.10;;;1.90;99.90;;;;;;5023204;28;20095;-60
2022/12/08 02:18:36;;;;;;;5.95;1.05;;;1.90;99.90;;;;;;5024080;28;20098;-58
2022/12/08 02:21:23;;;;;;;5.70;1.13;;;1.90;99.90;;;;;;5023709;28;20120;-60
2022/12/08 02:24:00;;;;;;;5.18;1.10;;;1.90;99.90;;;;;;5023604;28;20044;-60
2022/12/08 02:26:46;;;;;;;7.80;1.30;;;1.90;99.90;;;;;;5024177;28;20037;-59
2022/12/08 02:29:46;;;;;;;3.85;1.00;;;1.90;99.90;;;;;;5024113;28;20060;-60
2022/12/08 02:32:47;;;;;;;2.70;0.95;;;1.90;99.90;;;;;;5023682;28;20044;-60
2022/12/08 02:35:37;;;;;;;4.53;0.98;;;2.00;99.90;;;;;;5016079;28;20041;-59
2022/12/08 02:38:13;;;;;;;4.35;1.10;;;1.90;99.90;;;;;;5023984;28;20049;-59
2022/12/08 02:40:48;;;;;;;5.28;1.30;;;2.00;99.90;;;;;;5022930;28;20048;-59
2022/12/08 02:43:27;;;;;;;5.82;1.20;;;2.00;99.90;;;;;;5024061;28;20037;-59
2022/12/08 02:45:59;;;;;;;6.30;1.40;;;2.00;99.90;;;;;;5023161;28;20069;-59
2022/12/08 02:48:27;;;;;;;7.05;1.45;;;2.10;99.90;;;;;;5022800;28;20046;-59
2022/12/08 02:50:53;;;;;;;7.75;1.77;;;2.10;99.90;;;;;;5022027;28;20060;-60
2022/12/08 02:53:18;;;;;;;7.22;1.60;;;2.10;99.90;;;;;;5023139;28;20484;-60
2022/12/08 02:56:21;;;;;;;7.55;1.85;;;2.10;99.90;;;;;;5022946;28;20110;-62
2022/12/08 02:58:55;;;;;;;4.30;1.20;;;2.20;99.90;;;;;;5022685;28;20045;-62
2022/12/08 03:01:53;;;;;;;6.00;1.25;;;2.10;99.90;;;;;;5023090;28;20037;-60
2022/12/08 03:04:58;;;;;;;3.97;1.30;;;2.20;99.90;;;;;;5021870;28;20511;-60
2022/12/08 03:07:33;;;;;;;3.25;0.95;;;2.20;99.90;;;;;;5022900;28;20080;-61
2022/12/08 03:10:06;;;;;;;3.92;0.95;;;2.20;99.90;;;;;;5022691;28;20154;-62
2022/12/08 03:12:47;;;;;;;4.63;1.20;;;2.20;99.90;;;;;;5024420;28;20056;-60
2022/12/08 03:15:17;;;;;;;6.93;1.33;;;2.10;99.90;;;;;;5021958;28;20041;-60
2022/12/08 03:17:46;;;;;;;5.05;1.10;;;2.10;99.90;;;;;;5023514;28;20411;-61
2022/12/08 03:20:18;;;;;;;5.57;1.08;;;2.10;99.90;;;;;;5020397;28;20601;-61
2022/12/08 03:22:46;;;;;;;3.15;1.00;;;2.10;99.90;;;;;;5023989;28;20041;-61
2022/12/08 03:25:14;;;;;;;3.28;1.00;;;2.00;99.90;;;;;;5023002;28;20072;-60
2022/12/08 03:27:40;;;;;;;7.03;1.10;;;2.00;99.90;;;;;;5023244;28;20042;-60
2022/12/08 03:30:07;;;;;;;6.07;1.20;;;2.00;99.90;;;;;;5023080;28;20041;-61
2022/12/08 03:32:34;;;;;;;6.57;1.60;;;2.00;99.90;;;;;;5023066;28;20041;-60
2022/12/08 03:35:04;;;;;;;6.63;1.15;;;2.00;99.90;;;;;;5022187;28;20137;-60
2022/12/08 03:37:30;;;;;;;7.03;1.10;;;2.00;99.90;;;;;;5022783;28;20756;-61
2022/12/08 03:39:56;;;;;;;3.78;1.25;;;2.00;99.90;;;;;;5022769;28;20050;-59
2022/12/08 03:42:22;;;;;;;5.38;1.50;;;2.00;99.90;;;;;;5025660;28;20113;-60
2022/12/08 03:44:47;;;;;;;2.50;0.88;;;2.00;99.90;;;;;;5027201;28;20051;-60
2022/12/08 03:47:13;;;;;;;3.95;1.00;;;2.00;99.90;;;;;;5007067;28;20064;-60
2022/12/08 03:49:39;;;;;;;3.60;1.00;;;2.00;99.90;;;;;;5026330;28;20060;-60
2022/12/08 03:52:05;;;;;;;1.85;0.80;;;2.00;99.90;;;;;;5026346;28;20137;-60
2022/12/08 03:54:31;;;;;;;6.18;1.05;;;2.00;99.90;;;;;;5024639;28;20123;-60
2022/12/08 03:56:57;;;;;;;2.28;0.90;;;2.00;99.90;;;;;;5042577;28;20046;-59
2022/12/08 03:59:22;;;;;;;3.08;0.90;;;2.00;99.90;;;;;;5026813;28;20045;-59
2022/12/08 04:01:48;;;;;;;8.90;1.10;;;2.00;99.90;;;;;;5025451;28;20492;-60
2022/12/08 04:04:13;;;;;;;4.75;0.70;;;2.00;99.90;;;;;;5025859;28;20033;-60
2022/12/08 04:06:39;;;;;;;5.25;1.30;;;2.00;99.90;;;;;;5026350;28;20033;-59
2022/12/08 04:09:04;;;;;;;3.72;1.08;;;2.00;99.90;;;;;;5027394;28;20041;-60
2022/12/08 04:11:30;;;;;;;4.93;1.60;;;1.90;99.90;;;;;;5027502;28;20064;-59
2022/12/08 04:13:55;;;;;;;5.00;1.10;;;1.90;99.90;;;;;;5026572;28;20471;-62
2022/12/08 04:16:24;;;;;;;2.20;0.80;;;1.90;99.90;;;;;;5024492;28;20112;-61
2022/12/08 04:18:50;;;;;;;4.22;1.33;;;1.90;99.90;;;;;;5023874;28;20136;-59
2022/12/08 04:21:15;;;;;;;3.22;0.90;;;1.90;99.90;;;;;;5025945;28;20145;-60
2022/12/08 04:23:41;;;;;;;3.30;1.00;;;1.80;99.90;;;;;;5025144;28;20042;-59
2022/12/08 04:26:07;;;;;;;2.40;0.70;;;1.80;99.90;;;;;;5026286;28;20474;-59
2022/12/08 04:28:33;;;;;;;3.25;0.85;;;1.80;99.90;;;;;;5024368;28;20060;-58
2022/12/08 04:30:59;;;;;;;4.28;1.20;;;1.70;99.90;;;;;;5026387;28;20052;-59
2022/12/08 04:33:24;;;;;;;3.95;0.98;;;1.70;99.90;;;;;;5026048;28;20044;-60
2022/12/08 04:35:50;;;;;;;4.57;1.42;;;1.70;99.90;;;;;;5024749;28;20049;-61
2022/12/08 04:38:16;;;;;;;4.80;1.30;;;1.70;99.90;;;;;;5025554;28;20409;-59
2022/12/08 04:40:41;;;;;;;4.15;1.40;;;1.70;99.90;;;;;;5025866;28;20037;-59
2022/12/08 04:43:07;;;;;;;5.35;1.48;;;1.70;99.90;;;;;;5025681;28;20049;-58
2022/12/08 04:45:32;;;;;;;4.82;1.13;;;1.70;99.90;;;;;;5023914;28;20576;-60
2022/12/08 04:47:59;;;;;;;3.10;1.00;;;1.60;99.90;;;;;;5025800;28;20037;-59
2022/12/08 04:50:25;;;;;;;3.47;0.98;;;1.60;99.90;;;;;;5024745;28;20058;-58
2022/12/08 04:52:51;;;;;;;5.55;1.70;;;1.70;99.90;;;;;;5025657;28;20143;-60
2022/12/08 04:55:16;;;;;;;2.50;1.08;;;1.60;99.90;;;;;;5023912;28;20045;-60
2022/12/08 04:57:42;;;;;;;3.25;1.10;;;1.70;99.90;;;;;;5025770;28;20340;-60
2022/12/08 05:00:08;;;;;;;4.40;1.52;;;1.60;99.90;;;;;;5025609;28;20076;-60
2022/12/08 05:02:34;;;;;;;4.22;1.30;;;1.70;99.90;;;;;;5025470;28;20075;-61
2022/12/08 05:05:00;;;;;;;3.78;1.10;;;1.70;99.90;;;;;;5024634;28;20599;-61
2022/12/08 05:07:26;;;;;;;4.03;0.85;;;1.70;99.90;;;;;;5025559;28;20112;-60
2022/12/08 05:09:51;;;;;;;5.03;0.93;;;1.70;99.90;;;;;;5024885;28;20693;-60
2022/12/08 05:12:17;;;;;;;5.78;1.23;;;1.70;99.90;;;;;;5025771;28;20088;-60
2022/12/08 05:14:42;;;;;;;4.85;1.30;;;1.70;99.90;;;;;;5025538;28;20042;-60
2022/12/08 05:17:08;;;;;;;4.28;1.05;;;1.70;99.90;;;;;;5025551;28;20585;-58
2022/12/08 05:19:34;;;;;;;3.50;1.40;;;1.70;99.90;;;;;;5024764;28;20439;-60
2022/12/08 05:21:59;;;;;;;5.25;1.00;;;1.70;99.90;;;;;;5024700;28;20045;-60
2022/12/08 05:24:25;;;;;;;6.97;1.63;;;1.70;99.90;;;;;;5024877;28;20872;-59
2022/12/08 05:26:51;;;;;;;4.80;1.13;;;1.70;99.90;;;;;;5025301;28;20041;-59
2022/12/08 05:29:16;;;;;;;3.03;0.93;;;1.70;99.90;;;;;;5024486;28;20480;-60
2022/12/08 05:31:42;;;;;;;4.13;1.08;;;1.70;99.90;;;;;;5024952;28;20034;-60
2022/12/08 05:34:07;;;;;;;6.18;1.30;;;1.70;99.90;;;;;;5023346;28;20038;-59
2022/12/08 05:36:33;;;;;;;6.20;1.23;;;1.70;99.90;;;;;;5025825;28;20758;-59
2022/12/08 05:38:58;;;;;;;3.65;1.10;;;1.70;99.90;;;;;;5025313;28;20046;-59
2022/12/08 05:41:24;;;;;;;4.70;1.35;;;1.70;99.90;;;;;;5024927;28;20537;-60
2022/12/08 05:43:50;;;;;;;7.55;2.60;;;1.70;99.90;;;;;;5025560;28;20646;-60
2022/12/08 05:46:16;;;;;;;2.58;0.90;;;1.70;99.90;;;;;;5024379;28;20037;-59
2022/12/08 05:48:42;;;;;;;4.20;0.95;;;1.70;99.90;;;;;;5023949;28;20045;-61
2022/12/08 05:51:16;;;;;;;3.97;1.05;;;1.70;99.90;;;;;;5024094;28;20060;-60
2022/12/08 05:53:42;;;;;;;5.18;1.30;;;1.70;99.90;;;;;;5025015;28;20045;-59
2022/12/08 05:56:07;;;;;;;3.28;1.10;;;1.60;99.90;;;;;;5024727;28;20049;-59
2022/12/08 05:58:33;;;;;;;3.65;1.60;;;1.60;99.90;;;;;;5024852;28;20412;-60
2022/12/08 06:00:58;;;;;;;4.72;1.30;;;1.60;99.90;;;;;;5024608;28;20046;-59
2022/12/08 06:03:24;;;;;;;4.60;1.15;;;1.60;99.90;;;;;;5023919;28;20750;-60
2022/12/08 06:05:50;;;;;;;4.00;1.23;;;1.60;99.90;;;;;;5023389;28;20116;-60
2022/12/08 06:08:16;;;;;;;7.68;1.20;;;1.50;99.90;;;;;;5039923;28;20041;-60
2022/12/08 06:10:43;;;;;;;3.83;1.10;;;1.50;99.90;;;;;;5024665;28;20480;-60
2022/12/08 06:13:09;;;;;;;3.15;1.00;;;1.50;99.90;;;;;;5024593;28;20128;-60
2022/12/08 06:15:36;;;;;;;5.45;1.40;;;1.50;99.90;;;;;;5023560;28;20520;-60
2022/12/08 06:18:02;;;;;;;3.92;1.10;;;1.50;99.90;;;;;;5024147;28;20408;-60
2022/12/08 06:20:27;;;;;;;7.57;3.72;;;1.50;99.90;;;;;;5023189;28;20041;-58
2022/12/08 06:22:54;;;;;;;4.43;1.70;;;1.40;99.90;;;;;;5024106;28;20508;-60
2022/12/08 06:25:20;;;;;;;5.05;1.30;;;1.40;99.90;;;;;;5023965;28;20045;-60
2022/12/08 06:27:45;;;;;;;6.85;1.27;;;1.40;99.90;;;;;;5024289;28;20120;-59
2022/12/08 06:30:11;;;;;;;3.42;1.20;;;1.40;99.90;;;;;;5023838;28;20473;-59
2022/12/08 06:32:37;;;;;;;3.92;1.50;;;1.40;99.90;;;;;;5022293;28;20041;-60
2022/12/08 06:35:03;;;;;;;6.53;1.90;;;1.40;99.90;;;;;;5020997;28;20095;-59
2022/12/08 06:37:28;;;;;;;5.30;1.90;;;1.40;99.90;;;;;;5024034;28;20144;-59
2022/12/08 06:39:54;;;;;;;8.05;1.70;;;1.40;99.90;;;;;;5023678;28;20140;-60
2022/12/08 06:45:04;;;;;;;3.80;0.95;;;1.40;99.90;;;;;;5022233;28;20045;-57
2022/12/08 06:47:30;;;;;;;3.30;0.82;;;1.40;99.90;;;;;;5023038;28;20053;-60
2022/12/08 06:49:55;;;;;;;4.90;1.10;;;1.40;99.90;;;;;;5023206;28;20045;-59
2022/12/08 06:52:21;;;;;;;4.53;1.00;;;1.40;99.90;;;;;;5022948;28;20057;-58
2022/12/08 06:54:47;;;;;;;5.68;1.10;;;1.40;99.90;;;;;;5023156;28;20045;-58
2022/12/08 06:57:12;;;;;;;3.17;0.90;;;1.40;99.90;;;;;;5021590;28;20905;-59
2022/12/08 06:59:38;;;;;;;4.65;1.17;;;1.40;99.90;;;;;;5023464;28;20037;-60
2022/12/08 07:20:29;;;;;;;4.40;1.38;;;1.20;99.90;;;;;;5008172;28;20048;-55
2022/12/08 07:22:54;;;;;;;6.93;1.50;;;1.20;99.90;;;;;;5022085;28;20120;-57
2022/12/08 07:25:20;;;;;;;4.40;1.73;;;1.20;99.90;;;;;;5020658;28;20035;-60
2022/12/08 07:27:46;;;;;;;8.65;1.90;;;1.10;99.90;;;;;;5023057;28;20044;-60
2022/12/08 07:30:12;;;;;;;6.00;2.42;;;1.10;99.90;;;;;;5020775;28;20610;-59
2022/12/08 07:32:38;;;;;;;9.65;2.70;;;1.10;99.90;;;;;;5022878;28;20124;-60
2022/12/08 07:35:05;;;;;;;8.65;2.90;;;1.10;99.90;;;;;;5021726;28;20460;-59
2022/12/08 07:37:32;;;;;;;7.10;2.72;;;1.10;99.90;;;;;;5023445;28;20103;-61
2022/12/08 07:39:58;;;;;;;5.88;2.70;;;1.10;99.90;;;;;;5021096;28;20619;-60
2022/12/08 07:42:24;;;;;;;11.32;3.03;;;1.10;99.90;;;;;;5022854;28;20183;-59
2022/12/08 07:44:49;;;;;;;9.05;2.80;;;1.10;99.90;;;;;;5022655;28;20049;-58
2022/12/08 07:47:15;;;;;;;8.75;3.13;;;1.10;99.90;;;;;;5021058;28;20033;-59
2022/12/08 07:49:40;;;;;;;8.63;3.25;;;1.00;99.90;;;;;;5022520;28;20091;-59
2022/12/08 07:52:06;;;;;;;10.98;3.75;;;1.00;99.90;;;;;;5022450;28;20057;-57
2022/12/08 07:54:31;;;;;;;9.23;3.45;;;1.00;99.90;;;;;;5021900;28;20087;-58
2022/12/08 07:56:57;;;;;;;8.85;3.15;;;1.00;99.90;;;;;;5023276;28;20187;-59
2022/12/08 07:59:23;;;;;;;8.40;3.35;;;1.00;99.90;;;;;;5023389;28;20056;-59
2022/12/08 08:01:50;;;;;;;10.68;4.03;;;0.90;99.90;;;;;;5022314;28;20148;-58
2022/12/08 08:04:16;;;;;;;12.23;4.03;;;0.90;99.90;;;;;;5019939;28;20126;-59
2022/12/08 08:06:41;;;;;;;15.10;3.72;;;0.90;99.90;;;;;;5022136;28;20223;-59
2022/12/08 08:09:08;;;;;;;7.40;3.10;;;0.90;99.90;;;;;;5021701;28;20120;-59
2022/12/08 08:11:34;;;;;;;9.60;3.45;;;0.90;99.90;;;;;;5023345;28;20052;-58
2022/12/08 08:14:00;;;;;;;6.88;3.10;;;0.90;99.90;;;;;;5022917;28;20042;-59
2022/12/08 08:16:26;;;;;;;9.00;3.97;;;0.90;99.90;;;;;;5022459;28;20045;-59
2022/12/08 08:18:51;;;;;;;9.88;3.53;;;0.90;99.90;;;;;;5020233;28;20045;-59
2022/12/08 08:21:18;;;;;;;7.40;3.33;;;0.90;99.90;;;;;;5020606;28;20053;-60
2022/12/08 08:23:44;;;;;;;8.30;3.42;;;0.90;99.90;;;;;;5021513;28;20120;-59
2022/12/08 08:26:09;;;;;;;11.48;3.13;;;0.80;99.90;;;;;;5022862;28;20723;-59
2022/12/08 08:28:35;;;;;;;8.15;2.50;;;0.90;99.90;;;;;;5026613;28;20685;-59
2022/12/08 08:31:01;;;;;;;10.38;3.00;;;0.90;99.90;;;;;;5025985;28;20488;-58
2022/12/08 08:33:27;;;;;;;6.65;2.78;;;0.90;99.90;;;;;;5025511;28;20049;-59
2022/12/08 08:35:53;;;;;;;11.45;2.53;;;0.80;99.90;;;;;;5024720;28;20043;-59
2022/12/08 08:38:19;;;;;;;8.98;2.60;;;0.90;99.90;;;;;;5025501;28;20500;-60
2022/12/08 08:40:45;;;;;;;7.93;2.70;;;0.80;99.90;;;;;;5025586;28;20053;-59
2022/12/08 08:43:27;;;;;;;8.73;3.08;;;0.80;99.90;;;;;;5026927;28;20531;-59
2022/12/08 08:45:58;;;;;;;9.38;2.92;;;0.80;99.90;;;;;;5025880;28;20041;-60
2022/12/08 08:48:25;;;;;;;10.55;3.55;;;0.80;99.90;;;;;;5024603;28;20045;-59
2022/12/08 08:50:51;;;;;;;10.27;4.90;;;0.90;99.90;;;;;;5024535;28;20139;-60
2022/12/08 08:53:17;;;;;;;9.95;3.78;;;0.90;99.90;;;;;;5025527;28;20503;-58
2022/12/08 08:55:43;;;;;;;8.52;2.67;;;0.90;99.90;;;;;;5025546;28;20707;-58
2022/12/08 08:58:08;;;;;;;15.88;3.30;;;1.10;99.90;;;;;;5026276;28;20045;-60
2022/12/08 09:00:34;;;;;;;10.68;2.90;;;1.20;99.90;;;;;;5023912;28;20111;-58
2022/12/08 09:02:59;;;;;;;13.45;2.53;;;1.40;99.90;;;;;;5025452;28;20048;-59
2022/12/08 09:05:25;;;;;;;11.40;2.75;;;1.50;99.90;;;;;;5023752;28;20049;-59
2022/12/08 09:07:50;;;;;;;11.05;2.30;;;1.60;99.90;;;;;;5023500;28;20033;-58
2022/12/08 09:10:16;;;;;;;8.43;2.20;;;1.60;99.90;;;;;;5012384;28;20037;-60
2022/12/08 09:12:41;;;;;;;6.00;2.40;;;1.60;99.90;;;;;;5024184;28;20370;-59
2022/12/08 09:15:07;;;;;;;11.73;4.50;;;1.50;99.90;;;;;;5012214;28;20041;-59
2022/12/08 09:17:33;;;;;;;13.43;5.43;;;1.50;99.90;;;;;;5014375;28;20045;-58
2022/12/08 09:20:00;;;;;;;10.65;4.07;;;1.50;99.90;;;;;;5024476;28;20432;-58
2022/12/08 09:22:25;;;;;;;6.40;3.08;;;1.50;99.90;;;;;;5025219;28;20048;-59
2022/12/08 09:24:51;;;;;;;7.95;3.20;;;1.50;99.90;;;;;;5022799;28;20050;-59
2022/12/08 09:27:16;;;;;;;11.32;3.58;;;1.50;99.90;;;;;;5025767;28;20041;-59
2022/12/08 09:29:42;;;;;;;9.77;2.22;;;1.50;99.90;;;;;;5025446;28;20783;-59
2022/12/08 09:32:08;;;;;;;8.05;2.28;;;1.60;99.90;;;;;;5023670;28;20073;-58
2022/12/08 09:34:33;;;;;;;7.07;2.53;;;1.60;99.90;;;;;;5023910;28;20383;-59
2022/12/08 09:36:59;;;;;;;9.20;2.10;;;1.70;99.90;;;;;;5024168;28;20037;-59
2022/12/08 09:39:24;;;;;;;6.45;2.05;;;1.80;99.90;;;;;;5023304;28;20152;-59
2022/12/08 09:41:57;;;;;;;7.80;1.92;;;1.80;99.90;;;;;;5024958;28;20030;-58
2022/12/08 09:44:37;;;;;;;9.20;2.17;;;1.90;99.90;;;;;;5040245;28;20077;-59
2022/12/08 09:47:12;;;;;;;8.43;2.35;;;2.00;99.90;;;;;;5024058;28;20038;-58
2022/12/08 09:49:44;;;;;;;9.25;2.22;;;2.10;99.90;;;;;;5022466;28;20044;-59
2022/12/08 09:52:20;;;;;;;6.68;2.40;;;2.10;99.90;;;;;;5024059;28;20083;-59
2022/12/08 09:54:45;;;;;;;10.73;2.63;;;2.20;99.90;;;;;;5023601;28;20037;-59
2022/12/08 09:57:15;;;;;;;6.78;1.90;;;2.20;99.90;;;;;;5025260;28;20045;-58
2022/12/08 09:59:46;;;;;;;5.82;1.73;;;2.30;99.90;;;;;;5024396;28;20033;-58
2022/12/08 10:02:23;;;;;;;4.10;1.77;;;2.30;99.90;;;;;;5024269;28;20037;-58
2022/12/08 10:04:54;;;;;;;11.52;1.90;;;2.30;99.90;;;;;;5023663;28;20049;-58
2022/12/08 10:07:57;;;;;;;7.63;1.92;;;2.40;99.90;;;;;;5023866;28;20515;-58
2022/12/08 10:10:42;;;;;;;8.23;1.90;;;2.40;99.90;;;;;;5032069;28;20041;-59
2022/12/08 10:13:37;;;;;;;10.40;3.13;;;2.40;99.90;;;;;;5039809;28;20228;-57
2022/12/08 10:16:18;;;;;;;6.28;2.25;;;2.50;99.90;;;;;;5024510;28;20037;-58
2022/12/08 10:18:44;;;;;;;13.93;2.90;;;2.60;99.90;;;;;;5023492;28;20045;-59
2022/12/08 10:21:24;;;;;;;6.18;2.53;;;2.60;99.90;;;;;;5023416;28;20099;-58
2022/12/08 10:23:57;;;;;;;10.13;2.85;;;2.70;99.90;;;;;;5023282;28;20045;-59
2022/12/08 10:26:22;;;;;;;9.52;2.28;;;2.70;99.90;;;;;;5024036;28;20049;-58
2022/12/08 10:28:48;;;;;;;8.10;2.05;;;2.80;99.90;;;;;;5024154;28;20029;-57
2022/12/08 10:31:20;;;;;;;6.55;2.10;;;2.70;99.90;;;;;;5024212;28;20124;-58
2022/12/08 10:33:51;;;;;;;12.73;2.33;;;2.80;99.90;;;;;;5022357;28;20041;-59
2022/12/08 10:36:16;;;;;;;9.57;2.30;;;2.70;99.90;;;;;;5020381;28;20100;-57
2022/12/08 10:38:42;;;;;;;11.23;2.60;;;2.70;99.90;;;;;;5012030;28;20037;-57
2022/12/08 10:41:10;;;;;;;6.93;2.67;;;2.60;99.90;;;;;;5023506;28;20048;-57
2022/12/08 10:43:46;;;;;;;9.13;2.78;;;2.60;99.90;;;;;;5023565;28;20125;-58
2022/12/08 10:46:21;;;;;;;6.75;2.00;;;2.60;99.90;;;;;;5023822;28;20042;-59
2022/12/08 10:48:52;;;;;;;8.80;2.35;;;2.50;99.90;;;;;;5021367;28;20430;-60
2022/12/08 10:51:34;;;;;;;8.77;2.58;;;2.50;99.90;;;;;;5002874;28;20073;-59
2022/12/08 10:54:00;;;;;;;6.63;2.28;;;2.60;99.90;;;;;;5013572;28;20049;-59
2022/12/08 10:56:30;;;;;;;7.55;2.28;;;2.60;99.90;;;;;;5005826;28;20041;-58
2022/12/08 10:59:17;;;;;;;8.43;2.10;;;2.70;99.90;;;;;;5023691;28;20049;-59
2022/12/08 11:01:48;;;;;;;6.25;1.98;;;2.80;99.90;;;;;;5022431;28;20124;-58
2022/12/08 11:04:22;;;;;;;12.05;2.00;;;2.90;99.90;;;;;;5022512;28;20056;-59
2022/12/08 11:06:49;;;;;;;9.38;1.83;;;3.00;99.90;;;;;;5023064;28;20633;-58
2022/12/08 11:09:15;;;;;;;4.10;1.23;;;3.10;99.90;;;;;;5022420;28;20440;-58
2022/12/08 11:11:52;;;;;;;6.18;1.52;;;3.30;99.90;;;;;;5023941;28;20041;-57
2022/12/08 11:14:32;;;;;;;8.98;1.98;;;3.60;99.90;;;;;;5022478;28;20083;-57
2022/12/08 11:17:14;;;;;;;11.05;1.55;;;3.80;99.90;;;;;;5023337;28;20037;-58
2022/12/08 11:19:42;;;;;;;10.25;2.05;;;3.90;99.90;;;;;;5022457;28;20303;-57
2022/12/08 11:22:53;;;;;;;11.05;2.10;;;3.90;99.90;;;;;;5018591;28;20109;-58
2022/12/08 11:25:27;;;;;;;12.65;1.73;;;3.90;99.90;;;;;;4980318;28;20573;-58
2022/12/08 11:27:56;;;;;;;10.95;2.53;;;3.80;99.90;;;;;;4979824;28;20573;-59
2022/12/08 11:30:38;;;;;;;8.82;2.30;;;3.80;99.90;;;;;;5005216;28;20053;-58
2022/12/08 11:33:23;;;;;;;6.68;2.25;;;3.90;99.90;;;;;;5022154;28;20266;-58
2022/12/08 11:35:55;;;;;;;8.55;2.05;;;3.90;99.90;;;;;;5021682;28;20065;-58
2022/12/08 11:38:23;;;;;;;10.80;1.95;;;4.00;99.90;;;;;;5022385;28;20052;-58
2022/12/08 11:40:55;;;;;;;9.60;2.00;;;4.10;99.90;;;;;;5021034;28;20060;-58
2022/12/08 11:43:33;;;;;;;7.88;2.25;;;4.40;99.90;;;;;;5021401;28;20095;-59
2022/12/08 11:46:09;;;;;;;9.60;2.17;;;4.80;99.90;;;;;;5022928;28;20540;-58
2022/12/08 11:48:52;;;;;;;9.80;1.70;;;5.10;99.90;;;;;;5037531;28;20049;-58
2022/12/08 11:51:29;;;;;;;8.95;1.77;;;5.20;99.90;;;;;;5022003;28;20061;-57
2022/12/08 11:54:28;;;;;;;10.90;1.60;;;5.20;99.90;;;;;;5022046;28;20654;-58
2022/12/08 11:57:07;;;;;;;5.35;1.58;;;5.10;99.90;;;;;;5023092;28;20095;-57
2022/12/08 11:59:48;;;;;;;7.32;1.70;;;5.00;99.90;;;;;;5038417;28;20037;-60
2022/12/08 12:02:19;;;;;;;7.90;1.80;;;4.90;99.90;;;;;;5022991;28;20079;-60
2022/12/08 12:04:59;;;;;;;5.68;1.52;;;4.90;99.90;;;;;;5025594;28;20084;-59
2022/12/08 12:07:30;;;;;;;6.85;1.75;;;4.80;99.90;;;;;;5026379;28;20107;-59
2022/12/08 12:10:04;;;;;;;5.38;1.73;;;4.80;99.90;;;;;;5025737;28;20051;-58
2022/12/08 12:13:00;;;;;;;6.45;1.40;;;4.70;99.90;;;;;;5026815;28;20053;-60
2022/12/08 12:15:26;;;;;;;8.65;1.30;;;4.70;99.90;;;;;;5025738;28;20132;-57
2022/12/08 12:18:10;;;;;;;14.52;2.15;;;4.70;99.90;;;;;;5025868;28;20175;-58
2022/12/08 12:20:45;;;;;;;9.88;1.63;;;4.80;99.90;;;;;;5025485;28;20117;-58
2022/12/08 12:23:32;;;;;;;6.07;1.38;;;4.90;99.90;;;;;;5025579;28;20060;-56
2022/12/08 12:26:01;;;;;;;6.90;1.42;;;4.90;99.90;;;;;;5041718;28;20045;-59
2022/12/08 12:28:34;;;;;;;8.82;1.67;;;4.90;99.90;;;;;;5025113;28;20079;-58
2022/12/08 12:31:09;;;;;;;9.25;1.50;;;4.90;99.90;;;;;;5026230;28;20046;-60
2022/12/08 12:33:35;;;;;;;9.15;1.40;;;4.90;99.90;;;;;;5024906;28;20056;-57
2022/12/08 12:36:04;;;;;;;8.90;1.30;;;5.10;99.90;;;;;;5025332;28;20489;-58
2022/12/08 12:39:03;;;;;;;12.38;2.75;;;5.20;99.90;;;;;;5023721;28;20095;-59
2022/12/08 12:41:39;;;;;;;11.52;1.73;;;5.40;99.90;;;;;;5004640;28;20103;-58
2022/12/08 12:44:13;;;;;;;11.15;2.03;;;5.50;99.90;;;;;;5006449;28;20052;-59
2022/12/08 12:46:44;;;;;;;8.77;2.20;;;5.50;99.90;;;;;;5006350;28;20228;-58
2022/12/08 12:49:38;;;;;;;7.93;1.38;;;5.40;99.90;;;;;;5008215;28;20044;-60
2022/12/08 12:52:15;;;;;;;7.68;2.20;;;5.10;99.10;;;;;;5025219;28;20071;-58
2022/12/08 12:55:09;;;;;;;6.97;1.80;;;4.80;99.90;;;;;;5024355;28;20049;-57
2022/12/08 12:57:38;;;;;;;6.93;1.65;;;4.60;99.90;;;;;;5025896;28;20341;-58
2022/12/08 13:00:04;;;;;;;10.07;2.60;;;4.40;99.90;;;;;;5025600;28;20121;-59
2022/12/08 13:02:35;;;;;;;11.88;2.47;;;4.20;99.90;;;;;;5039981;28;20128;-57
2022/12/08 13:05:26;;;;;;;7.70;2.00;;;4.10;99.90;;;;;;5023788;28;20120;-58
2022/12/08 13:07:56;;;;;;;9.38;1.88;;;3.90;99.90;;;;;;5024600;28;20048;-59
2022/12/08 13:10:35;;;;;;;6.32;2.05;;;3.80;99.90;;;;;;5025197;28;20041;-58
2022/12/08 13:13:21;;;;;;;8.73;2.42;;;3.80;99.90;;;;;;5025531;28;20365;-60
2022/12/08 13:15:49;;;;;;;13.30;2.42;;;3.70;99.90;;;;;;5039654;28;20152;-59
2022/12/08 13:18:25;;;;;;;5.20;2.05;;;3.70;99.90;;;;;;5024811;28;20041;-59
2022/12/08 13:21:01;;;;;;;9.15;2.10;;;3.80;99.90;;;;;;5023715;28;20045;-58
2022/12/08 13:23:29;;;;;;;9.93;2.00;;;3.90;99.90;;;;;;5005804;28;20044;-59
2022/12/08 13:26:19;;;;;;;10.85;2.20;;;3.90;99.90;;;;;;5024806;28;20142;-60
2022/12/08 13:29:00;;;;;;;7.05;2.20;;;3.90;99.90;;;;;;5013989;28;20042;-56
2022/12/08 13:31:47;;;;;;;9.48;2.38;;;3.90;99.90;;;;;;5005255;28;20056;-58
2022/12/08 13:34:18;;;;;;;9.00;2.50;;;3.80;99.90;;;;;;5006924;28;20060;-57
2022/12/08 13:37:11;;;;;;;8.48;2.70;;;3.80;99.90;;;;;;5023971;28;20041;-57
2022/12/08 13:39:46;;;;;;;6.95;2.92;;;3.80;99.90;;;;;;5022851;28;20077;-57